Time;durP1;ratioP1;P1;durP2;ratioP2;P2;SDS_P1;SDS_P2;PMS_P1;PMS_P2;Temp;Humidity;BMP_temperature;BMP_pressure;BME280_temperature;BME280_humidity;BME280_pressure;Samples;Min_cycle;Max_cycle;Signal;HPM_P1;HPM_P2
2024/02/02 00:01:42;;;;;;;4.78;4.38;;;;;;;;;;4919736;29;20533;-67
2024/02/02 00:04:08;;;;;;;7.80;6.00;;;;;;;;;;4925311;29;20067;-68
2024/02/02 00:06:34;;;;;;;5.70;4.93;;;;;;;;;;4922218;29;20040;-68
2024/02/02 00:09:00;;;;;;;5.25;4.82;;;;;;;;;;4924152;29;20677;-68
2024/02/02 00:11:27;;;;;;;4.03;3.83;;;;;;;;;;4923206;29;20051;-68
2024/02/02 00:13:53;;;;;;;4.60;4.25;;;;;;;;;;4920700;29;20490;-67
2024/02/02 00:16:19;;;;;;;3.85;3.60;;;;;;;;;;4924711;29;20063;-67
2024/02/02 00:18:47;;;;;;;4.70;2.72;;;;;;;;;;4922024;29;20035;-66
2024/02/02 00:21:12;;;;;;;5.25;4.75;;;;;;;;;;4924238;29;20040;-67
2024/02/02 00:23:38;;;;;;;5.50;5.00;;;;;;;;;;4924332;29;20028;-66
2024/02/02 00:26:04;;;;;;;5.63;5.13;;;;;;;;;;4935381;29;20500;-68
2024/02/02 00:28:30;;;;;;;6.28;5.68;;;;;;;;;;4927216;29;20122;-68
2024/02/02 00:30:56;;;;;;;4.28;3.97;;;;;;;;;;4923055;29;20044;-67
2024/02/02 00:33:22;;;;;;;4.70;4.38;;;;;;;;;;4922956;29;20111;-68
2024/02/02 00:35:48;;;;;;;6.35;5.40;;;;;;;;;;4924461;29;20114;-68
2024/02/02 00:38:14;;;;;;;5.55;5.00;;;;;;;;;;4921161;29;20542;-68
2024/02/02 00:40:40;;;;;;;8.25;6.63;;;;;;;;;;4919685;29;20075;-68
2024/02/02 00:43:06;;;;;;;6.50;6.00;;;;;;;;;;4937939;29;20051;-68
2024/02/02 00:45:31;;;;;;;8.60;6.93;;;;;;;;;;4921226;29;20043;-68
2024/02/02 00:47:59;;;;;;;7.38;5.38;;;;;;;;;;4924613;29;20039;-67
2024/02/02 00:50:25;;;;;;;7.72;6.65;;;;;;;;;;4921773;29;20043;-68
2024/02/02 00:52:50;;;;;;;3.97;3.67;;;;;;;;;;4919224;29;20131;-68
2024/02/02 00:55:16;;;;;;;5.20;4.80;;;;;;;;;;4924786;29;20503;-68
2024/02/02 00:57:42;;;;;;;7.25;6.38;;;;;;;;;;4921353;29;20654;-67
2024/02/02 01:00:10;;;;;;;7.43;6.63;;;;;;;;;;4919843;29;20042;-67
2024/02/02 01:02:37;;;;;;;7.07;6.38;;;;;;;;;;4926679;29;20040;-67
2024/02/02 01:05:04;;;;;;;5.75;5.13;;;;;;;;;;4919710;29;20399;-68
2024/02/02 01:07:31;;;;;;;7.20;6.50;;;;;;;;;;4927725;29;20570;-68
2024/02/02 01:09:56;;;;;;;7.30;6.57;;;;;;;;;;4922627;29;20047;-67
2024/02/02 01:12:23;;;;;;;5.95;5.35;;;;;;;;;;4922457;29;20356;-68
2024/02/02 01:14:49;;;;;;;7.95;6.07;;;;;;;;;;4918949;29;20237;-69
2024/02/02 01:17:14;;;;;;;6.97;6.28;;;;;;;;;;4926432;29;20122;-69
2024/02/02 01:19:40;;;;;;;6.15;5.60;;;;;;;;;;4921320;29;20047;-68
2024/02/02 01:22:06;;;;;;;7.43;6.72;;;;;;;;;;4922488;29;20115;-68
2024/02/02 01:24:32;;;;;;;4.50;4.20;;;;;;;;;;4920513;29;20048;-68
2024/02/02 01:26:58;;;;;;;3.75;3.55;;;;;;;;;;4923762;29;20501;-68
2024/02/02 01:29:25;;;;;;;5.68;5.28;;;;;;;;;;4918513;29;20038;-68
2024/02/02 01:31:51;;;;;;;5.82;5.32;;;;;;;;;;4922252;29;20047;-68
2024/02/02 01:34:17;;;;;;;8.90;6.00;;;;;;;;;;4922298;29;20031;-68
2024/02/02 01:36:43;;;;;;;5.93;5.22;;;;;;;;;;4929632;29;20585;-68
2024/02/02 01:39:11;;;;;;;6.05;5.53;;;;;;;;;;4923393;29;20032;-67
2024/02/02 01:41:37;;;;;;;4.65;4.15;;;;;;;;;;4922803;29;20039;-69
2024/02/02 01:44:03;;;;;;;4.22;3.83;;;;;;;;;;4914844;29;20040;-68
2024/02/02 01:46:30;;;;;;;5.70;5.22;;;;;;;;;;4920962;29;20095;-68
2024/02/02 01:48:57;;;;;;;4.45;4.15;;;;;;;;;;4921923;29;20032;-67
2024/02/02 01:51:23;;;;;;;6.50;5.50;;;;;;;;;;4920326;29;20039;-68
2024/02/02 01:53:49;;;;;;;5.40;4.95;;;;;;;;;;4923362;29;20032;-67
2024/02/02 01:56:15;;;;;;;4.32;4.03;;;;;;;;;;4920036;29;20040;-67
2024/02/02 01:58:41;;;;;;;5.93;5.43;;;;;;;;;;4919165;29;20480;-67
2024/02/02 02:01:07;;;;;;;4.95;4.57;;;;;;;;;;4923228;29;20562;-68
2024/02/02 02:03:33;;;;;;;3.65;3.38;;;;;;;;;;4920223;29;20060;-68
2024/02/02 02:05:59;;;;;;;4.38;3.97;;;;;;;;;;4926383;29;20521;-68
2024/02/02 02:08:25;;;;;;;2.97;2.78;;;;;;;;;;4925277;29;20074;-68
2024/02/02 02:10:51;;;;;;;4.03;3.72;;;;;;;;;;4908219;29;20561;-68
2024/02/02 02:13:17;;;;;;;4.70;4.10;;;;;;;;;;4924950;29;20055;-67
2024/02/02 02:15:43;;;;;;;3.30;3.10;;;;;;;;;;4922850;29;20733;-68
2024/02/02 02:18:09;;;;;;;4.25;3.95;;;;;;;;;;4927593;29;20198;-69
2024/02/02 02:20:36;;;;;;;3.80;3.60;;;;;;;;;;4928812;29;20070;-68
2024/02/02 02:23:03;;;;;;;4.45;4.05;;;;;;;;;;4922975;29;20028;-68
2024/02/02 02:25:29;;;;;;;8.13;4.88;;;;;;;;;;4925807;29;20131;-66
2024/02/02 02:27:54;;;;;;;4.95;4.55;;;;;;;;;;4925201;29;20111;-69
2024/02/02 02:30:20;;;;;;;3.97;3.58;;;;;;;;;;4925586;29;20063;-69
2024/02/02 02:32:46;;;;;;;4.45;4.15;;;;;;;;;;4927275;29;20040;-69
2024/02/02 02:35:12;;;;;;;3.20;3.00;;;;;;;;;;4923751;29;20102;-67
2024/02/02 02:37:39;;;;;;;4.32;4.00;;;;;;;;;;4934213;29;20031;-68
2024/02/02 02:40:05;;;;;;;3.45;3.20;;;;;;;;;;4938334;29;20082;-69
2024/02/02 02:42:31;;;;;;;3.08;2.88;;;;;;;;;;4928420;29;20063;-69
2024/02/02 02:44:57;;;;;;;5.15;4.38;;;;;;;;;;4929908;29;20528;-69
2024/02/02 02:47:23;;;;;;;4.65;4.22;;;;;;;;;;4922823;29;20125;-68
2024/02/02 02:49:49;;;;;;;4.55;4.18;;;;;;;;;;4926928;29;20043;-68
2024/02/02 02:52:15;;;;;;;4.15;3.85;;;;;;;;;;4925278;29;20027;-69
2024/02/02 02:54:40;;;;;;;3.65;3.35;;;;;;;;;;4923224;29;20043;-68
2024/02/02 02:57:06;;;;;;;4.07;3.78;;;;;;;;;;4926432;29;20131;-69
2024/02/02 02:59:32;;;;;;;3.63;3.33;;;;;;;;;;4925102;29;20572;-69
2024/02/02 03:01:58;;;;;;;4.38;4.05;;;;;;;;;;4934533;29;20043;-68
2024/02/02 03:04:25;;;;;;;3.38;3.17;;;;;;;;;;4925329;29;20079;-68
2024/02/02 03:06:51;;;;;;;6.38;4.90;;;;;;;;;;4924364;29;20122;-68
2024/02/02 03:09:16;;;;;;;5.85;4.55;;;;;;;;;;4927094;29;20080;-69
2024/02/02 03:11:42;;;;;;;4.88;4.57;;;;;;;;;;4926364;29;20039;-68
2024/02/02 03:14:08;;;;;;;5.10;4.20;;;;;;;;;;4921463;29;20020;-68
2024/02/02 03:16:34;;;;;;;3.45;3.20;;;;;;;;;;4935648;29;20075;-68
2024/02/02 03:19:00;;;;;;;3.95;3.70;;;;;;;;;;4938801;29;20158;-67
2024/02/02 03:21:26;;;;;;;3.28;3.08;;;;;;;;;;4925808;29;20122;-71
2024/02/02 03:23:52;;;;;;;4.03;3.72;;;;;;;;;;4930708;29;20582;-70
2024/02/02 03:26:17;;;;;;;3.50;3.20;;;;;;;;;;4928067;29;20083;-67
2024/02/02 03:28:43;;;;;;;5.07;4.68;;;;;;;;;;4921375;29;20036;-69
2024/02/02 03:31:09;;;;;;;4.63;3.30;;;;;;;;;;4928391;29;20063;-69
2024/02/02 03:33:35;;;;;;;11.75;4.45;;;;;;;;;;4905712;29;20044;-69
2024/02/02 03:36:01;;;;;;;7.78;4.88;;;;;;;;;;4923699;29;20039;-68
2024/02/02 03:38:27;;;;;;;4.55;4.18;;;;;;;;;;4926393;29;20044;-69
2024/02/02 03:40:53;;;;;;;5.47;4.80;;;;;;;;;;4926734;29;20042;-67
2024/02/02 03:43:18;;;;;;;5.10;4.68;;;;;;;;;;4929430;29;20042;-68
2024/02/02 03:45:44;;;;;;;6.53;4.50;;;;;;;;;;4925290;29;20048;-69
2024/02/02 03:48:10;;;;;;;3.83;3.63;;;;;;;;;;4924641;29;20161;-69
2024/02/02 03:50:36;;;;;;;3.67;3.38;;;;;;;;;;4926004;29;20032;-68
2024/02/02 03:53:02;;;;;;;5.80;5.30;;;;;;;;;;4924329;29;20071;-68
2024/02/02 03:55:28;;;;;;;5.53;4.72;;;;;;;;;;4910650;29;20046;-69
2024/02/02 03:57:53;;;;;;;4.72;4.30;;;;;;;;;;4927671;29;20036;-69
2024/02/02 04:00:19;;;;;;;4.47;4.18;;;;;;;;;;4923453;29;20744;-69
2024/02/02 04:02:46;;;;;;;4.22;3.90;;;;;;;;;;4920976;29;20042;-69
2024/02/02 04:05:11;;;;;;;5.40;3.90;;;;;;;;;;4921767;29;20047;-68
2024/02/02 04:07:37;;;;;;;5.70;5.15;;;;;;;;;;4939148;29;20036;-69
2024/02/02 04:10:04;;;;;;;6.43;4.18;;;;;;;;;;4927503;29;20396;-69
2024/02/02 04:12:31;;;;;;;5.63;5.20;;;;;;;;;;4921734;29;20036;-69
2024/02/02 04:14:57;;;;;;;6.38;4.97;;;;;;;;;;4923564;29;20090;-69
2024/02/02 04:17:23;;;;;;;6.07;4.07;;;;;;;;;;4921679;29;20038;-70
2024/02/02 04:19:49;;;;;;;4.28;3.97;;;;;;;;;;4928821;29;20227;-70
2024/02/02 04:22:16;;;;;;;6.63;4.45;;;;;;;;;;4927160;29;20127;-70
2024/02/02 04:24:43;;;;;;;5.47;5.03;;;;;;;;;;4920280;29;20100;-70
2024/02/02 04:27:09;;;;;;;4.35;4.05;;;;;;;;;;4923944;29;20031;-68
2024/02/02 04:29:35;;;;;;;4.78;4.38;;;;;;;;;;4919558;29;20040;-69
2024/02/02 04:32:02;;;;;;;12.38;5.65;;;;;;;;;;4921900;29;20032;-69
2024/02/02 04:34:27;;;;;;;4.15;3.90;;;;;;;;;;4920807;29;20028;-69
2024/02/02 04:36:53;;;;;;;7.03;5.53;;;;;;;;;;4917966;29;20418;-69
2024/02/02 04:39:19;;;;;;;5.78;4.95;;;;;;;;;;4920470;29;20107;-68
2024/02/02 04:41:45;;;;;;;5.57;5.05;;;;;;;;;;4918457;29;20036;-69
2024/02/02 04:44:11;;;;;;;11.63;5.03;;;;;;;;;;4920869;29;20664;-70
2024/02/02 04:46:37;;;;;;;8.25;4.85;;;;;;;;;;4923623;29;20043;-69
2024/02/02 04:49:03;;;;;;;3.00;2.88;;;;;;;;;;4919628;29;20078;-69
2024/02/02 04:51:28;;;;;;;5.90;4.32;;;;;;;;;;4922010;29;20590;-69
2024/02/02 04:53:54;;;;;;;4.13;3.75;;;;;;;;;;4921740;29;20043;-69
2024/02/02 04:56:20;;;;;;;6.45;5.07;;;;;;;;;;4940479;29;20462;-69
2024/02/02 04:58:46;;;;;;;4.45;4.13;;;;;;;;;;4925060;29;20051;-69
2024/02/02 05:01:12;;;;;;;11.75;4.82;;;;;;;;;;4918772;29;20421;-69
2024/02/02 05:03:37;;;;;;;5.50;5.00;;;;;;;;;;4920231;29;20032;-69
2024/02/02 05:06:03;;;;;;;4.88;3.90;;;;;;;;;;4923837;29;20130;-70
2024/02/02 05:08:29;;;;;;;7.75;5.35;;;;;;;;;;4922215;29;20072;-69
2024/02/02 05:10:55;;;;;;;4.38;3.72;;;;;;;;;;4927573;29;20046;-69
2024/02/02 05:13:21;;;;;;;5.00;4.60;;;;;;;;;;4923895;29;20626;-69
2024/02/02 05:15:47;;;;;;;6.07;5.38;;;;;;;;;;4921797;29;20063;-69
2024/02/02 05:18:14;;;;;;;7.63;5.65;;;;;;;;;;4924990;29;20621;-70
2024/02/02 05:20:40;;;;;;;6.05;5.00;;;;;;;;;;4921157;29;20040;-69
2024/02/02 05:23:05;;;;;;;4.43;4.13;;;;;;;;;;4924403;29;20115;-70
2024/02/02 05:25:31;;;;;;;5.90;4.95;;;;;;;;;;4932664;29;20071;-68
2024/02/02 05:27:57;;;;;;;7.65;4.88;;;;;;;;;;4934314;29;20063;-71
2024/02/02 05:30:23;;;;;;;4.15;3.75;;;;;;;;;;4935333;29;20047;-71
2024/02/02 05:32:49;;;;;;;4.85;4.35;;;;;;;;;;4926284;29;20498;-71
2024/02/02 05:35:15;;;;;;;3.67;3.35;;;;;;;;;;4923443;29;20032;-72
2024/02/02 05:37:41;;;;;;;7.25;5.65;;;;;;;;;;4886196;29;20415;-72
2024/02/02 05:40:07;;;;;;;5.38;4.88;;;;;;;;;;4912311;29;20035;-72
2024/02/02 05:42:33;;;;;;;5.72;4.50;;;;;;;;;;4927001;29;20044;-73
2024/02/02 05:44:59;;;;;;;5.05;4.35;;;;;;;;;;4925900;29;20134;-70
2024/02/02 05:47:25;;;;;;;4.38;3.58;;;;;;;;;;4923371;29;20043;-72
2024/02/02 05:49:51;;;;;;;11.63;5.65;;;;;;;;;;4926642;29;20027;-71
2024/02/02 05:52:17;;;;;;;4.75;4.15;;;;;;;;;;4922484;29;20038;-69
2024/02/02 05:54:43;;;;;;;5.18;3.20;;;;;;;;;;4904970;29;20578;-72
2024/02/02 05:57:09;;;;;;;10.23;6.10;;;;;;;;;;4922311;29;20557;-72
2024/02/02 05:59:34;;;;;;;3.78;3.53;;;;;;;;;;4925370;29;20063;-72
2024/02/02 06:02:00;;;;;;;5.50;4.93;;;;;;;;;;4925459;29;20036;-72
2024/02/02 06:04:26;;;;;;;5.20;4.70;;;;;;;;;;4926454;29;20854;-72
2024/02/02 06:06:52;;;;;;;3.55;3.25;;;;;;;;;;4923851;29;20131;-72
2024/02/02 06:09:18;;;;;;;6.43;3.97;;;;;;;;;;4942504;28;20039;-72
2024/02/02 06:11:47;;;;;;;4.60;4.20;;;;;;;;;;4935776;29;20039;-71
2024/02/02 06:14:13;;;;;;;4.80;4.40;;;;;;;;;;4928357;29;20460;-73
2024/02/02 06:16:38;;;;;;;3.08;2.88;;;;;;;;;;4924959;29;20162;-72
2024/02/02 06:19:04;;;;;;;4.72;4.28;;;;;;;;;;4921033;29;20032;-72
2024/02/02 06:21:30;;;;;;;7.20;4.00;;;;;;;;;;4923493;29;20062;-71
2024/02/02 06:23:56;;;;;;;5.97;4.10;;;;;;;;;;4924857;29;20158;-72
2024/02/02 06:26:22;;;;;;;7.78;4.32;;;;;;;;;;4908718;29;20531;-71
2024/02/02 06:28:48;;;;;;;4.88;3.65;;;;;;;;;;4924977;29;20466;-71
2024/02/02 06:31:14;;;;;;;4.57;4.28;;;;;;;;;;4924803;29;20031;-72
2024/02/02 06:33:40;;;;;;;4.88;4.40;;;;;;;;;;4920683;29;20090;-69
2024/02/02 06:36:06;;;;;;;5.85;4.63;;;;;;;;;;4922466;29;20027;-72
2024/02/02 06:38:32;;;;;;;6.95;5.43;;;;;;;;;;4908670;29;20531;-71
2024/02/02 06:40:58;;;;;;;7.72;3.95;;;;;;;;;;4923863;29;20067;-72
2024/02/02 06:43:24;;;;;;;4.22;3.92;;;;;;;;;;4925559;29;20040;-71
2024/02/02 06:45:50;;;;;;;5.85;3.42;;;;;;;;;;4924998;29;20136;-72
2024/02/02 06:48:15;;;;;;;4.43;4.00;;;;;;;;;;4905276;29;20043;-72
2024/02/02 06:50:44;;;;;;;4.45;4.13;;;;;;;;;;4923795;29;20064;-70
2024/02/02 06:53:10;;;;;;;5.03;4.40;;;;;;;;;;4922141;29;20110;-71
2024/02/02 06:55:36;;;;;;;6.40;3.55;;;;;;;;;;4928785;29;20600;-72
2024/02/02 06:58:04;;;;;;;6.03;3.80;;;;;;;;;;4920098;29;20544;-71
2024/02/02 07:00:30;;;;;;;4.72;3.28;;;;;;;;;;4929179;29;20040;-71
2024/02/02 07:02:56;;;;;;;4.60;4.22;;;;;;;;;;4925416;29;20035;-71
2024/02/02 07:05:22;;;;;;;4.47;4.00;;;;;;;;;;4933426;29;20139;-72
2024/02/02 07:07:48;;;;;;;4.13;3.75;;;;;;;;;;4932442;29;20091;-72
2024/02/02 07:10:18;;;;;;;4.03;3.65;;;;;;;;;;4916115;29;20435;-71
2024/02/02 07:12:56;;;;;;;5.35;4.72;;;;;;;;;;4932226;29;20067;-71
2024/02/02 07:15:33;;;;;;;3.97;3.58;;;;;;;;;;4932881;29;20064;-71
2024/02/02 07:17:59;;;;;;;5.43;4.18;;;;;;;;;;4927506;29;20032;-71
2024/02/02 07:20:25;;;;;;;4.63;4.25;;;;;;;;;;4931431;29;20028;-71
2024/02/02 07:22:53;;;;;;;4.22;3.85;;;;;;;;;;4934220;29;20067;-71
2024/02/02 07:25:19;;;;;;;4.10;3.70;;;;;;;;;;4933475;29;20040;-72
2024/02/02 07:27:52;;;;;;;5.35;4.82;;;;;;;;;;4932082;29;20529;-73
2024/02/02 07:30:27;;;;;;;3.03;2.85;;;;;;;;;;4937037;29;20043;-73
2024/02/02 07:32:53;;;;;;;4.05;3.75;;;;;;;;;;4932934;29;20122;-73
2024/02/02 07:35:31;;;;;;;3.05;2.83;;;;;;;;;;4933237;29;20530;-72
2024/02/02 07:38:07;;;;;;;3.75;3.47;;;;;;;;;;4933930;29;20514;-72
2024/02/02 07:40:36;;;;;;;4.75;4.30;;;;;;;;;;4950984;29;20047;-72
2024/02/02 07:43:02;;;;;;;3.85;3.28;;;;;;;;;;4952046;28;20043;-72
2024/02/02 07:45:28;;;;;;;3.47;3.28;;;;;;;;;;4951722;28;20043;-72
2024/02/02 07:47:54;;;;;;;3.25;2.95;;;;;;;;;;4950712;29;20395;-72
2024/02/02 07:50:20;;;;;;;4.40;4.07;;;;;;;;;;4946406;28;20490;-72
2024/02/02 07:52:46;;;;;;;7.25;3.72;;;;;;;;;;4931066;29;20147;-71
2024/02/02 07:55:13;;;;;;;3.47;2.67;;;;;;;;;;4932513;29;20127;-71
2024/02/02 07:57:39;;;;;;;3.30;2.85;;;;;;;;;;4931220;29;20550;-72
2024/02/02 08:00:05;;;;;;;2.53;2.38;;;;;;;;;;4921776;29;20048;-71
2024/02/02 08:02:38;;;;;;;3.92;3.53;;;;;;;;;;4928451;29;20031;-70
2024/02/02 08:05:07;;;;;;;5.55;3.08;;;;;;;;;;4915570;29;20627;-70
2024/02/02 08:07:34;;;;;;;7.30;3.65;;;;;;;;;;4931655;29;20627;-70
2024/02/02 08:10:00;;;;;;;4.22;3.83;;;;;;;;;;4933291;29;20039;-71
2024/02/02 08:12:28;;;;;;;8.88;3.42;;;;;;;;;;4916307;29;20778;-70
2024/02/02 08:14:54;;;;;;;3.60;3.30;;;;;;;;;;4933678;29;20499;-70
2024/02/02 08:17:20;;;;;;;7.43;3.08;;;;;;;;;;4935917;29;20043;-70
2024/02/02 08:19:46;;;;;;;2.90;2.70;;;;;;;;;;4946059;29;20203;-71
2024/02/02 08:22:12;;;;;;;3.78;2.53;;;;;;;;;;4950091;29;20087;-71
2024/02/02 08:24:38;;;;;;;3.90;3.28;;;;;;;;;;4934542;29;20491;-71
2024/02/02 08:27:04;;;;;;;2.70;2.47;;;;;;;;;;4932194;29;20427;-71
2024/02/02 08:29:30;;;;;;;4.75;2.70;;;;;;;;;;4933207;29;20561;-71
2024/02/02 08:31:57;;;;;;;5.03;2.95;;;;;;;;;;4915595;29;20036;-71
2024/02/02 08:34:25;;;;;;;4.20;2.35;;;;;;;;;;4932489;29;20681;-71
2024/02/02 08:36:52;;;;;;;3.10;2.88;;;;;;;;;;4931037;29;20053;-71
2024/02/02 08:39:18;;;;;;;7.47;3.20;;;;;;;;;;4931068;29;20040;-72
2024/02/02 08:41:44;;;;;;;10.70;2.70;;;;;;;;;;4932238;29;20557;-72
2024/02/02 08:44:32;;;;;;;4.35;2.63;;;;;;;;;;4932048;29;20070;-73
2024/02/02 08:46:59;;;;;;;2.10;2.00;;;;;;;;;;4932462;29;20489;-71
2024/02/02 08:49:27;;;;;;;2.22;2.00;;;;;;;;;;4932339;29;20102;-72
2024/02/02 08:51:53;;;;;;;3.42;2.20;;;;;;;;;;4932243;29;20128;-71
2024/02/02 08:54:19;;;;;;;2.13;1.98;;;;;;;;;;4932513;29;20044;-71
2024/02/02 08:56:46;;;;;;;2.63;2.42;;;;;;;;;;4931238;29;20502;-72
2024/02/02 08:59:43;;;;;;;2.25;1.88;;;;;;;;;;4930874;29;20036;-72
2024/02/02 09:02:14;;;;;;;3.90;1.73;;;;;;;;;;4914385;29;20035;-71
2024/02/02 09:04:40;;;;;;;3.53;2.22;;;;;;;;;;4915320;29;20703;-72
2024/02/02 09:07:08;;;;;;;1.65;1.55;;;;;;;;;;4915528;29;20082;-72
2024/02/02 09:09:34;;;;;;;3.83;2.42;;;;;;;;;;4930645;29;20438;-72
2024/02/02 09:12:00;;;;;;;1.85;1.70;;;;;;;;;;4932412;29;20054;-71
2024/02/02 09:14:26;;;;;;;4.63;2.67;;;;;;;;;;4933015;29;20043;-72
2024/02/02 09:16:52;;;;;;;2.42;2.22;;;;;;;;;;4914878;29;20056;-70
2024/02/02 09:19:24;;;;;;;1.70;1.60;;;;;;;;;;4930464;29;20495;-71
2024/02/02 09:21:50;;;;;;;1.90;1.80;;;;;;;;;;4930538;29;20130;-72
2024/02/02 09:24:26;;;;;;;2.05;1.80;;;;;;;;;;4930273;29;20561;-72
2024/02/02 09:26:57;;;;;;;5.72;1.98;;;;;;;;;;4930526;29;20035;-71
2024/02/02 09:29:23;;;;;;;3.17;2.10;;;;;;;;;;4930256;29;20039;-72
2024/02/02 09:31:49;;;;;;;6.47;2.13;;;;;;;;;;4930397;29;20040;-72
2024/02/02 09:34:33;;;;;;;1.63;1.50;;;;;;;;;;4914544;29;20119;-72
2024/02/02 09:36:59;;;;;;;2.65;1.92;;;;;;;;;;4930658;29;20110;-72
2024/02/02 09:39:43;;;;;;;2.72;1.50;;;;;;;;;;4931425;29;20043;-71
2024/02/02 09:42:28;;;;;;;1.70;1.60;;;;;;;;;;4930338;29;20036;-71
2024/02/02 09:44:58;;;;;;;2.88;1.85;;;;;;;;;;4931819;29;20933;-72
2024/02/02 09:47:24;;;;;;;1.83;1.40;;;;;;;;;;4930236;29;20032;-73
2024/02/02 09:49:50;;;;;;;1.60;1.30;;;;;;;;;;4931727;29;20055;-71
2024/02/02 09:52:23;;;;;;;2.95;1.55;;;;;;;;;;4931096;29;20039;-71
2024/02/02 09:54:49;;;;;;;3.10;1.67;;;;;;;;;;4931573;29;20039;-72
2024/02/02 09:57:18;;;;;;;1.88;1.77;;;;;;;;;;4930939;29;20531;-72
2024/02/02 09:59:44;;;;;;;2.75;1.83;;;;;;;;;;4931234;29;20511;-72
2024/02/02 10:02:16;;;;;;;1.85;1.73;;;;;;;;;;4931289;29;20098;-71
2024/02/02 10:05:21;;;;;;;4.30;2.25;;;;;;;;;;4931475;29;20039;-72
2024/02/02 10:07:57;;;;;;;2.05;1.85;;;;;;;;;;4890703;29;20539;-72
2024/02/02 10:10:29;;;;;;;1.73;1.63;;;;;;;;;;4875297;29;20031;-71
2024/02/02 10:13:30;;;;;;;4.75;1.65;;;;;;;;;;4913883;29;20510;-72
2024/02/02 10:16:10;;;;;;;2.55;2.28;;;;;;;;;;4909699;29;20139;-72
2024/02/02 10:18:40;;;;;;;3.55;1.58;;;;;;;;;;4914072;29;20047;-73
2024/02/02 10:21:11;;;;;;;1.95;1.65;;;;;;;;;;4930086;29;20071;-72
2024/02/02 10:23:47;;;;;;;1.83;1.50;;;;;;;;;;4930623;29;20059;-72
2024/02/02 10:26:24;;;;;;;3.03;1.88;;;;;;;;;;4931721;29;20047;-71
2024/02/02 10:29:02;;;;;;;3.47;1.50;;;;;;;;;;4934805;29;20039;-72
2024/02/02 10:31:42;;;;;;;17.98;2.85;;;;;;;;;;4934760;29;20380;-72
2024/02/02 10:34:15;;;;;;;1.40;1.30;;;;;;;;;;4933575;29;20036;-72
2024/02/02 10:37:00;;;;;;;2.15;1.92;;;;;;;;;;4918171;29;20048;-71
2024/02/02 10:39:45;;;;;;;4.55;1.50;;;;;;;;;;4933211;29;20415;-72
2024/02/02 10:42:19;;;;;;;3.75;2.35;;;;;;;;;;4935043;29;20039;-71
2024/02/02 10:45:07;;;;;;;1.45;1.33;;;;;;;;;;4934482;29;20051;-72
2024/02/02 10:47:39;;;;;;;1.65;1.55;;;;;;;;;;4933376;29;20046;-73
2024/02/02 10:50:35;;;;;;;2.92;1.33;;;;;;;;;;4935339;29;20051;-72
2024/02/02 10:53:27;;;;;;;1.75;1.60;;;;;;;;;;4926299;29;20047;-72
2024/02/02 10:55:58;;;;;;;3.58;1.63;;;;;;;;;;4918980;29;20040;-71
2024/02/02 10:58:50;;;;;;;3.25;1.80;;;;;;;;;;4917886;29;20064;-72
2024/02/02 11:01:42;;;;;;;2.35;1.80;;;;;;;;;;4912706;29;20078;-71
2024/02/02 11:04:16;;;;;;;3.03;1.92;;;;;;;;;;4936642;29;20047;-72
2024/02/02 11:07:06;;;;;;;4.13;1.55;;;;;;;;;;4921032;29;20040;-71
2024/02/02 11:09:32;;;;;;;3.45;2.10;;;;;;;;;;4938218;29;20111;-72
2024/02/02 11:12:01;;;;;;;1.48;1.40;;;;;;;;;;4942517;29;20063;-72
2024/02/02 11:14:30;;;;;;;2.28;2.08;;;;;;;;;;4949651;29;20176;-72
2024/02/02 11:17:00;;;;;;;1.83;1.67;;;;;;;;;;4937392;29;20058;-72
2024/02/02 11:19:38;;;;;;;1.40;1.30;;;;;;;;;;4934287;29;20047;-72
2024/02/02 11:22:16;;;;;;;2.08;1.90;;;;;;;;;;4917115;29;20098;-72
2024/02/02 11:24:50;;;;;;;1.85;1.70;;;;;;;;;;4932401;29;20059;-71
2024/02/02 11:27:20;;;;;;;2.63;2.38;;;;;;;;;;4932898;29;20039;-72
2024/02/02 11:29:49;;;;;;;2.17;1.83;;;;;;;;;;4932596;29;20126;-73
2024/02/02 11:32:34;;;;;;;1.48;1.27;;;;;;;;;;4933727;29;20095;-73
2024/02/02 11:35:18;;;;;;;2.20;1.40;;;;;;;;;;4933592;29;20047;-73
2024/02/02 11:37:49;;;;;;;3.30;1.83;;;;;;;;;;4932560;29;20119;-72
2024/02/02 11:40:15;;;;;;;5.60;1.83;;;;;;;;;;4933757;29;20071;-73
2024/02/02 11:42:41;;;;;;;2.53;2.00;;;;;;;;;;4933174;29;20039;-72
2024/02/02 11:45:07;;;;;;;2.67;1.40;;;;;;;;;;4932376;29;20158;-71
2024/02/02 11:47:40;;;;;;;1.60;1.50;;;;;;;;;;4931821;29;20035;-72
2024/02/02 11:50:06;;;;;;;7.50;2.08;;;;;;;;;;4932284;29;20086;-73
2024/02/02 11:52:37;;;;;;;2.15;1.83;;;;;;;;;;4933154;29;20042;-72
2024/02/02 11:55:07;;;;;;;1.60;1.50;;;;;;;;;;4933695;29;20046;-72
2024/02/02 11:57:33;;;;;;;6.35;1.70;;;;;;;;;;4932387;29;20047;-71
2024/02/02 11:59:59;;;;;;;4.88;1.65;;;;;;;;;;4934712;29;20412;-73
2024/02/02 12:02:28;;;;;;;1.27;1.17;;;;;;;;;;4932517;29;20047;-72
2024/02/02 12:05:14;;;;;;;1.60;1.50;;;;;;;;;;4916895;29;20404;-73
2024/02/02 12:07:40;;;;;;;4.03;1.80;;;;;;;;;;4932143;29;20434;-72
2024/02/02 12:10:08;;;;;;;1.20;1.20;;;;;;;;;;4932717;29;20047;-72
2024/02/02 12:12:46;;;;;;;3.03;1.40;;;;;;;;;;4932310;29;20036;-73
2024/02/02 12:15:14;;;;;;;1.55;1.55;;;;;;;;;;4918548;29;20048;-75
2024/02/02 12:17:40;;;;;;;2.17;1.42;;;;;;;;;;4937332;29;20454;-72
2024/02/02 12:20:09;;;;;;;1.60;1.50;;;;;;;;;;4941685;29;20048;-72
2024/02/02 12:22:37;;;;;;;1.48;1.38;;;;;;;;;;4941394;29;20418;-72
2024/02/02 12:25:04;;;;;;;5.38;1.90;;;;;;;;;;4920947;29;20073;-72
2024/02/02 12:27:31;;;;;;;4.07;1.65;;;;;;;;;;4941719;29;20465;-71
2024/02/02 12:29:57;;;;;;;2.30;1.73;;;;;;;;;;4924119;29;20040;-72
2024/02/02 12:32:23;;;;;;;1.95;1.67;;;;;;;;;;4935587;29;20042;-73
2024/02/02 12:34:50;;;;;;;1.60;1.35;;;;;;;;;;4932393;29;20042;-72
2024/02/02 12:37:16;;;;;;;1.80;1.70;;;;;;;;;;4931941;29;20043;-73
2024/02/02 12:39:41;;;;;;;5.57;1.80;;;;;;;;;;4931565;29;20510;-73
2024/02/02 12:42:08;;;;;;;1.88;1.63;;;;;;;;;;4932120;29;20043;-72
2024/02/02 12:44:34;;;;;;;1.60;1.50;;;;;;;;;;4916023;29;20047;-72
2024/02/02 12:47:00;;;;;;;3.58;1.38;;;;;;;;;;4916027;29;20569;-72
2024/02/02 12:49:27;;;;;;;1.35;1.17;;;;;;;;;;4932599;29;20094;-72
2024/02/02 12:51:55;;;;;;;1.67;1.55;;;;;;;;;;4933161;29;20130;-72
2024/02/02 12:54:21;;;;;;;2.58;1.63;;;;;;;;;;4937592;29;20043;-72
2024/02/02 12:56:47;;;;;;;4.40;2.45;;;;;;;;;;4936216;29;20039;-72
2024/02/02 12:59:17;;;;;;;2.35;1.95;;;;;;;;;;4931008;29;20042;-72
2024/02/02 13:01:45;;;;;;;2.38;1.77;;;;;;;;;;4924021;29;20039;-72
2024/02/02 13:04:12;;;;;;;2.45;1.40;;;;;;;;;;4928688;29;20126;-73
2024/02/02 13:06:38;;;;;;;2.80;1.60;;;;;;;;;;4910938;29;20506;-72
2024/02/02 13:09:18;;;;;;;1.45;1.25;;;;;;;;;;4911300;29;20043;-73
2024/02/02 13:11:45;;;;;;;4.82;2.03;;;;;;;;;;4927754;29;20609;-72
2024/02/02 13:14:11;;;;;;;2.20;1.88;;;;;;;;;;4924521;29;20750;-72
2024/02/02 13:16:37;;;;;;;1.42;1.38;;;;;;;;;;4927760;29;20059;-72
2024/02/02 13:19:26;;;;;;;3.88;1.50;;;;;;;;;;4927639;29;20078;-73
2024/02/02 13:21:59;;;;;;;1.77;1.42;;;;;;;;;;4927884;29;20036;-71
2024/02/02 13:24:28;;;;;;;4.63;1.42;;;;;;;;;;4896161;29;20581;-72
2024/02/02 13:27:04;;;;;;;2.20;1.77;;;;;;;;;;4912242;29;20179;-72
2024/02/02 13:29:32;;;;;;;2.97;1.40;;;;;;;;;;4928328;29;20036;-72
2024/02/02 13:31:58;;;;;;;1.55;1.42;;;;;;;;;;4929384;29;20051;-72
2024/02/02 13:34:27;;;;;;;1.70;1.42;;;;;;;;;;4926879;29;20043;-72
2024/02/02 13:36:58;;;;;;;1.40;1.30;;;;;;;;;;4912256;29;20039;-73
2024/02/02 13:39:28;;;;;;;;;;;;;;;;;;4912110;29;20476;-71
2024/02/02 13:41:53;;;;;;;2.95;1.60;;;;;;;;;;4928883;29;19918;-73
2024/02/02 13:44:22;;;;;;;1.63;1.50;;;;;;;;;;4926155;29;20070;-72
2024/02/02 13:46:48;;;;;;;3.15;2.45;;;;;;;;;;4924229;29;20039;-72
2024/02/02 13:49:24;;;;;;;19.88;1.88;;;;;;;;;;4927589;29;20086;-72
2024/02/02 13:51:51;;;;;;;3.58;2.15;;;;;;;;;;4928867;29;20043;-72
2024/02/02 13:54:19;;;;;;;2.00;1.63;;;;;;;;;;4926359;29;20034;-71
2024/02/02 13:56:45;;;;;;;1.95;1.33;;;;;;;;;;4927836;29;20039;-71
2024/02/02 13:59:38;;;;;;;1.58;1.48;;;;;;;;;;4928048;29;20038;-73
2024/02/02 14:02:04;;;;;;;1.55;1.45;;;;;;;;;;4929931;29;20035;-72
2024/02/02 14:04:30;;;;;;;2.65;1.50;;;;;;;;;;4933464;29;20052;-72
2024/02/02 14:06:57;;;;;;;2.00;1.80;;;;;;;;;;4924565;29;20079;-72
2024/02/02 14:09:25;;;;;;;1.60;1.50;;;;;;;;;;4933049;29;20633;-72
2024/02/02 14:12:00;;;;;;;2.33;2.08;;;;;;;;;;4928757;29;20035;-72
2024/02/02 14:14:29;;;;;;;1.98;1.80;;;;;;;;;;4929145;29;20040;-72
2024/02/02 14:17:02;;;;;;;1.95;1.58;;;;;;;;;;4929001;29;20158;-72
2024/02/02 14:19:29;;;;;;;2.22;1.50;;;;;;;;;;4926803;29;20036;-71
2024/02/02 14:22:05;;;;;;;5.22;2.70;;;;;;;;;;4928635;29;20036;-71
2024/02/02 14:24:31;;;;;;;1.65;1.55;;;;;;;;;;4926608;29;20067;-72
2024/02/02 14:27:01;;;;;;;2.40;1.63;;;;;;;;;;4927070;29;20044;-71
2024/02/02 14:29:37;;;;;;;1.40;1.30;;;;;;;;;;4928003;29;20171;-72
2024/02/02 14:32:06;;;;;;;3.05;1.92;;;;;;;;;;4924685;29;20043;-73
2024/02/02 14:34:32;;;;;;;2.47;1.70;;;;;;;;;;4910760;29;20028;-73
2024/02/02 14:37:03;;;;;;;2.03;1.83;;;;;;;;;;4897223;29;20106;-72
2024/02/02 14:39:33;;;;;;;2.30;1.70;;;;;;;;;;4927232;29;20047;-74
2024/02/02 14:41:59;;;;;;;1.67;1.60;;;;;;;;;;4911903;29;20036;-72
2024/02/02 14:44:26;;;;;;;1.52;1.42;;;;;;;;;;4928990;29;20035;-73
2024/02/02 14:46:52;;;;;;;1.60;1.50;;;;;;;;;;4931905;29;20042;-72
2024/02/02 14:49:21;;;;;;;1.90;1.80;;;;;;;;;;4928628;29;20043;-73
2024/02/02 14:51:47;;;;;;;3.00;1.50;;;;;;;;;;4928461;29;20067;-71